Breckenridge, TX

4:55 PM CDT on September 22, 2014 (GMT -0500)
KTXALBAN3 | Change Station
CLOSE
Current Station
Personal Weather Station
Location: Albany, TX
Elevation: 1293 ft
Nearby Weather Stations

Elev 1293 ft 32.79 °N, 99.17 °W | Updated 21 seconds ago

Partly Cloudy
Partly Cloudy
86.9 °F
Feels Like 87 °F
N
2.6
Wind Variable Wind from ENE
Gusts 10.0 mph

Today
High -- | Low -- °F
--% Chance of Precip.
Yesterday
High -- | Low -- °F
Precip. -- in
7:23 AM 7:32 PM
Waning Crescent, 2% visible
Pressure 30.12 in
Visibility 10.0 miles
Clouds Mostly Cloudy 7000 ft
Heat Index 87 °F
Dew Point 61 °F
Humidity 42%
Rainfall 0.00 in
Snow Depth Not available.
UV 2 out of 12
Pollen 10.40 out of 12
Air Quality Not available.
Flu Activity Not available.
METAR KBKD 222135Z AUTO 04007KT 10SM BKN070 31/14 A3012 RMK AO2 T03130138

More Conditions Fewer Conditions

Pressure 30.12 in
Visibility 10.0 miles
Clouds Mostly Cloudy 7000 ft
Heat Index 87 °F
Dew Point 61 °F
Humidity 42%
Rainfall 0.00 in
Snow Depth Not available.
UV 2 out of 12
Pollen 10.40 out of 12
Air Quality Not available.
Flu Activity Not available.
METAR KBKD 222135Z AUTO 04007KT 10SM BKN070 31/14 A3012 RMK AO2 T03130138

More Conditions Fewer Conditions

Nowcast | as of 4:40 PM CDT on September 22, 2014

A few showers will continue from near Goldthwaite southeast to Temple over the next hour. Brief moderate rain will be possible with these. Elsewhere...skies will be mostly sunny with temperatures in the 80s and northeast winds.

×

10-Day Weather Forecast

Almanac

Astronomy

Sep. 22, 2014 Rise Set
Actual Time 7:23 AM CDT 7:32 PM CDT
Civil Twilight 6:59 AM CDT 7:56 PM CDT
Nautical Twilight 6:30 AM CDT 8:25 PM CDT
Astronomical Twilight 6:01 AM CDT 8:54 PM CDT
Moon 5:57 AM CDT 6:38 PM CDT
Length of Visible Light 12h 57m
Length of Day
12h 08m
Tomorrow will be 2m 0s shorter.
Waning Crescent, 2% of the Moon is Illuminated
Today
Waning Crescent
Sep 24
New
Oct 1
First Quarter
Oct 8
Full
Oct 15
Last Quarter

Today's Extremes

State Highs State Lows

Community

WunderPhotos

Upload Photos

1,755,537 photos uploaded!

WunderBlogs® & News

Nearby

Snow Depth

Station Depth Elevation
No new snow has been reported.

Earthquake Activity

City Distance Mag. Time & Date
Bray, Oklahoma 148 miles 3.6 2:28 PM CDT
2014-09-22
Minimum magnitude displayed is 2.5.

Coastal Water Temperatures

Place Temperature
No Stations Reporting

Nearby Weather Stations